<?xml version="1.0" encoding="UTF-8" standalone="no" ?>
<gpx xmlns="http://www.topografix.com/GPX/1/1" xmlns:xsi="http://www.w3.org/2001/XMLSchema-instance" xsi:schemaLocation="http://www.topografix.com/GPX/1/1 http://www.topografix.com/GPX/1/1/gpx.xsd" version="1.1" creator="VisuGPX - https://www.visugpx.com">
  <metadata>
    <name>Montée Cuvaloup - La dole</name>
    <desc><![CDATA[Montée de la Dole au départ du restaurant Cuvaloup
Accessible enfants 9-10 ans]]></desc>
  </metadata>
  <trk>
    <name><![CDATA[dole]]></name>
    <desc><![CDATA[1h:14m:26s | 2.5 km]]></desc>
    <trkseg>
      <trkpt lat="46.44012" lon="6.09221">
        <ele>1338.85</ele>
        <time>2014-08-17T08:08:58Z</time>
      </trkpt>
      <trkpt lat="46.44009" lon="6.09222">
        <ele>1340.14</ele>
        <time>2014-08-17T08:09:08Z</time>
      </trkpt>
      <trkpt lat="46.43997" lon="6.09227">
        <ele>1340.67</ele>
        <time>2014-08-17T08:09:18Z</time>
      </trkpt>
      <trkpt lat="46.43994" lon="6.09226">
        <ele>1341.42</ele>
        <time>2014-08-17T08:09:28Z</time>
      </trkpt>
      <trkpt lat="46.43989" lon="6.09226">
        <ele>1342.66</ele>
        <time>2014-08-17T08:09:38Z</time>
      </trkpt>
      <trkpt lat="46.43984" lon="6.09226">
        <ele>1343.85</ele>
        <time>2014-08-17T08:09:48Z</time>
      </trkpt>
      <trkpt lat="46.43977" lon="6.09224">
        <ele>1344.56</ele>
        <time>2014-08-17T08:09:58Z</time>
      </trkpt>
      <trkpt lat="46.43968" lon="6.09224">
        <ele>1346.13</ele>
        <time>2014-08-17T08:10:08Z</time>
      </trkpt>
      <trkpt lat="46.43966" lon="6.09221">
        <ele>1348.33</ele>
        <time>2014-08-17T08:10:18Z</time>
      </trkpt>
      <trkpt lat="46.43958" lon="6.09218">
        <ele>1350.31</ele>
        <time>2014-08-17T08:10:28Z</time>
      </trkpt>
      <trkpt lat="46.4395" lon="6.09214">
        <ele>1352.48</ele>
        <time>2014-08-17T08:10:38Z</time>
      </trkpt>
      <trkpt lat="46.43945" lon="6.09207">
        <ele>1354.17</ele>
        <time>2014-08-17T08:10:48Z</time>
      </trkpt>
      <trkpt lat="46.43937" lon="6.09206">
        <ele>1354.79</ele>
        <time>2014-08-17T08:10:58Z</time>
      </trkpt>
      <trkpt lat="46.43926" lon="6.09203">
        <ele>1355.37</ele>
        <time>2014-08-17T08:11:08Z</time>
      </trkpt>
      <trkpt lat="46.43921" lon="6.09202">
        <ele>1357.07</ele>
        <time>2014-08-17T08:11:18Z</time>
      </trkpt>
      <trkpt lat="46.43917" lon="6.09189">
        <ele>1358.33</ele>
        <time>2014-08-17T08:11:28Z</time>
      </trkpt>
      <trkpt lat="46.43907" lon="6.0919">
        <ele>1359</ele>
        <time>2014-08-17T08:11:38Z</time>
      </trkpt>
      <trkpt lat="46.43903" lon="6.09186">
        <ele>1359.5</ele>
        <time>2014-08-17T08:11:48Z</time>
      </trkpt>
      <trkpt lat="46.43896" lon="6.09189">
        <ele>1360.59</ele>
        <time>2014-08-17T08:11:58Z</time>
      </trkpt>
      <trkpt lat="46.43893" lon="6.09187">
        <ele>1361.03</ele>
        <time>2014-08-17T08:12:08Z</time>
      </trkpt>
      <trkpt lat="46.43887" lon="6.09181">
        <ele>1361.85</ele>
        <time>2014-08-17T08:12:18Z</time>
      </trkpt>
      <trkpt lat="46.43884" lon="6.09181">
        <ele>1361.71</ele>
        <time>2014-08-17T08:12:28Z</time>
      </trkpt>
      <trkpt lat="46.43872" lon="6.09186">
        <ele>1362.5</ele>
        <time>2014-08-17T08:12:38Z</time>
      </trkpt>
      <trkpt lat="46.43864" lon="6.09169">
        <ele>1363.23</ele>
        <time>2014-08-17T08:12:48Z</time>
      </trkpt>
      <trkpt lat="46.43861" lon="6.09168">
        <ele>1363.83</ele>
        <time>2014-08-17T08:12:58Z</time>
      </trkpt>
      <trkpt lat="46.43853" lon="6.09166">
        <ele>1363.98</ele>
        <time>2014-08-17T08:13:08Z</time>
      </trkpt>
      <trkpt lat="46.43847" lon="6.09162">
        <ele>1365.25</ele>
        <time>2014-08-17T08:13:18Z</time>
      </trkpt>
      <trkpt lat="46.4384" lon="6.09159">
        <ele>1367.51</ele>
        <time>2014-08-17T08:13:28Z</time>
      </trkpt>
      <trkpt lat="46.43837" lon="6.09157">
        <ele>1370.57</ele>
        <time>2014-08-17T08:13:38Z</time>
      </trkpt>
      <trkpt lat="46.43836" lon="6.09156">
        <ele>1372.53</ele>
        <time>2014-08-17T08:13:49Z</time>
      </trkpt>
      <trkpt lat="46.43832" lon="6.0915">
        <ele>1372.87</ele>
        <time>2014-08-17T08:13:59Z</time>
      </trkpt>
      <trkpt lat="46.43828" lon="6.09147">
        <ele>1373.99</ele>
        <time>2014-08-17T08:14:09Z</time>
      </trkpt>
      <trkpt lat="46.43825" lon="6.09144">
        <ele>1374.91</ele>
        <time>2014-08-17T08:14:19Z</time>
      </trkpt>
      <trkpt lat="46.4382" lon="6.09141">
        <ele>1377.5</ele>
        <time>2014-08-17T08:14:29Z</time>
      </trkpt>
      <trkpt lat="46.43817" lon="6.0914">
        <ele>1381.06</ele>
        <time>2014-08-17T08:14:39Z</time>
      </trkpt>
      <trkpt lat="46.43814" lon="6.09129">
        <ele>1383.33</ele>
        <time>2014-08-17T08:14:49Z</time>
      </trkpt>
      <trkpt lat="46.43805" lon="6.09131">
        <ele>1383.96</ele>
        <time>2014-08-17T08:14:59Z</time>
      </trkpt>
      <trkpt lat="46.43797" lon="6.09128">
        <ele>1384.52</ele>
        <time>2014-08-17T08:15:09Z</time>
      </trkpt>
      <trkpt lat="46.43788" lon="6.09119">
        <ele>1385.58</ele>
        <time>2014-08-17T08:15:19Z</time>
      </trkpt>
      <trkpt lat="46.43782" lon="6.09108">
        <ele>1386.24</ele>
        <time>2014-08-17T08:15:29Z</time>
      </trkpt>
      <trkpt lat="46.43778" lon="6.09105">
        <ele>1387.73</ele>
        <time>2014-08-17T08:15:39Z</time>
      </trkpt>
      <trkpt lat="46.43774" lon="6.09099">
        <ele>1389.39</ele>
        <time>2014-08-17T08:15:49Z</time>
      </trkpt>
      <trkpt lat="46.4377" lon="6.09092">
        <ele>1390.77</ele>
        <time>2014-08-17T08:15:59Z</time>
      </trkpt>
      <trkpt lat="46.43764" lon="6.09089">
        <ele>1391.48</ele>
        <time>2014-08-17T08:16:09Z</time>
      </trkpt>
      <trkpt lat="46.43759" lon="6.09085">
        <ele>1392.1</ele>
        <time>2014-08-17T08:16:19Z</time>
      </trkpt>
      <trkpt lat="46.43752" lon="6.09076">
        <ele>1390.72</ele>
        <time>2014-08-17T08:16:29Z</time>
      </trkpt>
      <trkpt lat="46.43749" lon="6.09074">
        <ele>1391.49</ele>
        <time>2014-08-17T08:16:39Z</time>
      </trkpt>
      <trkpt lat="46.43744" lon="6.09066">
        <ele>1391.72</ele>
        <time>2014-08-17T08:16:49Z</time>
      </trkpt>
      <trkpt lat="46.4374" lon="6.09062">
        <ele>1391.71</ele>
        <time>2014-08-17T08:16:59Z</time>
      </trkpt>
      <trkpt lat="46.43734" lon="6.09053">
        <ele>1391.09</ele>
        <time>2014-08-17T08:17:09Z</time>
      </trkpt>
      <trkpt lat="46.43725" lon="6.09039">
        <ele>1390.28</ele>
        <time>2014-08-17T08:17:19Z</time>
      </trkpt>
      <trkpt lat="46.43717" lon="6.09037">
        <ele>1390.73</ele>
        <time>2014-08-17T08:17:29Z</time>
      </trkpt>
      <trkpt lat="46.43711" lon="6.09038">
        <ele>1391.77</ele>
        <time>2014-08-17T08:17:39Z</time>
      </trkpt>
      <trkpt lat="46.43706" lon="6.09038">
        <ele>1392.19</ele>
        <time>2014-08-17T08:17:49Z</time>
      </trkpt>
      <trkpt lat="46.43696" lon="6.09034">
        <ele>1392.48</ele>
        <time>2014-08-17T08:17:59Z</time>
      </trkpt>
      <trkpt lat="46.43692" lon="6.09027">
        <ele>1393.18</ele>
        <time>2014-08-17T08:18:09Z</time>
      </trkpt>
      <trkpt lat="46.43688" lon="6.09025">
        <ele>1394.3</ele>
        <time>2014-08-17T08:18:19Z</time>
      </trkpt>
      <trkpt lat="46.43683" lon="6.09024">
        <ele>1396.17</ele>
        <time>2014-08-17T08:18:29Z</time>
      </trkpt>
      <trkpt lat="46.43675" lon="6.09022">
        <ele>1398.29</ele>
        <time>2014-08-17T08:18:39Z</time>
      </trkpt>
      <trkpt lat="46.43668" lon="6.0901">
        <ele>1398.8</ele>
        <time>2014-08-17T08:18:49Z</time>
      </trkpt>
      <trkpt lat="46.43664" lon="6.09001">
        <ele>1398.53</ele>
        <time>2014-08-17T08:18:59Z</time>
      </trkpt>
      <trkpt lat="46.43656" lon="6.09003">
        <ele>1400.18</ele>
        <time>2014-08-17T08:19:09Z</time>
      </trkpt>
      <trkpt lat="46.43651" lon="6.09006">
        <ele>1402.42</ele>
        <time>2014-08-17T08:19:19Z</time>
      </trkpt>
      <trkpt lat="46.43646" lon="6.09005">
        <ele>1405.03</ele>
        <time>2014-08-17T08:19:29Z</time>
      </trkpt>
      <trkpt lat="46.43641" lon="6.09001">
        <ele>1406.35</ele>
        <time>2014-08-17T08:19:39Z</time>
      </trkpt>
      <trkpt lat="46.43634" lon="6.08994">
        <ele>1408.41</ele>
        <time>2014-08-17T08:19:49Z</time>
      </trkpt>
      <trkpt lat="46.43624" lon="6.08987">
        <ele>1410.75</ele>
        <time>2014-08-17T08:19:59Z</time>
      </trkpt>
      <trkpt lat="46.43618" lon="6.08984">
        <ele>1413.46</ele>
        <time>2014-08-17T08:20:09Z</time>
      </trkpt>
      <trkpt lat="46.43613" lon="6.08976">
        <ele>1414.24</ele>
        <time>2014-08-17T08:20:19Z</time>
      </trkpt>
      <trkpt lat="46.43609" lon="6.0897">
        <ele>1415.51</ele>
        <time>2014-08-17T08:20:29Z</time>
      </trkpt>
      <trkpt lat="46.43604" lon="6.08963">
        <ele>1416.13</ele>
        <time>2014-08-17T08:20:39Z</time>
      </trkpt>
      <trkpt lat="46.43598" lon="6.0896">
        <ele>1416.91</ele>
        <time>2014-08-17T08:20:49Z</time>
      </trkpt>
      <trkpt lat="46.43596" lon="6.08956">
        <ele>1417.14</ele>
        <time>2014-08-17T08:20:59Z</time>
      </trkpt>
      <trkpt lat="46.43596" lon="6.08958">
        <ele>1417.52</ele>
        <time>2014-08-17T08:21:09Z</time>
      </trkpt>
      <trkpt lat="46.43596" lon="6.08962">
        <ele>1418.42</ele>
        <time>2014-08-17T08:21:19Z</time>
      </trkpt>
      <trkpt lat="46.43596" lon="6.08964">
        <ele>1418.96</ele>
        <time>2014-08-17T08:21:29Z</time>
      </trkpt>
      <trkpt lat="46.43588" lon="6.08969">
        <ele>1419.07</ele>
        <time>2014-08-17T08:21:39Z</time>
      </trkpt>
      <trkpt lat="46.43582" lon="6.08975">
        <ele>1419.17</ele>
        <time>2014-08-17T08:21:49Z</time>
      </trkpt>
      <trkpt lat="46.43575" lon="6.08978">
        <ele>1418.84</ele>
        <time>2014-08-17T08:21:59Z</time>
      </trkpt>
      <trkpt lat="46.43575" lon="6.08973">
        <ele>1419.21</ele>
        <time>2014-08-17T08:22:09Z</time>
      </trkpt>
      <trkpt lat="46.43565" lon="6.08973">
        <ele>1418.32</ele>
        <time>2014-08-17T08:22:19Z</time>
      </trkpt>
      <trkpt lat="46.43555" lon="6.08975">
        <ele>1419.89</ele>
        <time>2014-08-17T08:22:29Z</time>
      </trkpt>
      <trkpt lat="46.43551" lon="6.08982">
        <ele>1420.97</ele>
        <time>2014-08-17T08:22:39Z</time>
      </trkpt>
      <trkpt lat="46.4355" lon="6.08994">
        <ele>1421.3</ele>
        <time>2014-08-17T08:22:49Z</time>
      </trkpt>
      <trkpt lat="46.43554" lon="6.09007">
        <ele>1421.68</ele>
        <time>2014-08-17T08:22:59Z</time>
      </trkpt>
      <trkpt lat="46.43554" lon="6.09012">
        <ele>1423.27</ele>
        <time>2014-08-17T08:23:09Z</time>
      </trkpt>
      <trkpt lat="46.43554" lon="6.09018">
        <ele>1424.55</ele>
        <time>2014-08-17T08:23:19Z</time>
      </trkpt>
      <trkpt lat="46.43555" lon="6.09023">
        <ele>1425.95</ele>
        <time>2014-08-17T08:23:29Z</time>
      </trkpt>
      <trkpt lat="46.43558" lon="6.09032">
        <ele>1428.25</ele>
        <time>2014-08-17T08:23:39Z</time>
      </trkpt>
      <trkpt lat="46.43555" lon="6.09039">
        <ele>1430.3</ele>
        <time>2014-08-17T08:23:49Z</time>
      </trkpt>
      <trkpt lat="46.43555" lon="6.09043">
        <ele>1431.01</ele>
        <time>2014-08-17T08:23:59Z</time>
      </trkpt>
      <trkpt lat="46.43555" lon="6.09042">
        <ele>1431.1</ele>
        <time>2014-08-17T08:24:17Z</time>
      </trkpt>
      <trkpt lat="46.43556" lon="6.09042">
        <ele>1433.24</ele>
        <time>2014-08-17T08:25:24Z</time>
      </trkpt>
      <trkpt lat="46.43554" lon="6.09043">
        <ele>1436.87</ele>
        <time>2014-08-17T08:26:19Z</time>
      </trkpt>
      <trkpt lat="46.43546" lon="6.09048">
        <ele>1438.95</ele>
        <time>2014-08-17T08:26:29Z</time>
      </trkpt>
      <trkpt lat="46.43544" lon="6.09056">
        <ele>1440.21</ele>
        <time>2014-08-17T08:26:39Z</time>
      </trkpt>
      <trkpt lat="46.43542" lon="6.09062">
        <ele>1441.66</ele>
        <time>2014-08-17T08:26:49Z</time>
      </trkpt>
      <trkpt lat="46.43537" lon="6.09069">
        <ele>1442.82</ele>
        <time>2014-08-17T08:26:59Z</time>
      </trkpt>
      <trkpt lat="46.43532" lon="6.09078">
        <ele>1444.79</ele>
        <time>2014-08-17T08:27:09Z</time>
      </trkpt>
      <trkpt lat="46.43528" lon="6.09089">
        <ele>1447.04</ele>
        <time>2014-08-17T08:27:19Z</time>
      </trkpt>
      <trkpt lat="46.43522" lon="6.09092">
        <ele>1449.85</ele>
        <time>2014-08-17T08:27:29Z</time>
      </trkpt>
      <trkpt lat="46.43515" lon="6.09096">
        <ele>1451.53</ele>
        <time>2014-08-17T08:27:39Z</time>
      </trkpt>
      <trkpt lat="46.43506" lon="6.09097">
        <ele>1454.05</ele>
        <time>2014-08-17T08:27:49Z</time>
      </trkpt>
      <trkpt lat="46.435" lon="6.09098">
        <ele>1455.6</ele>
        <time>2014-08-17T08:27:59Z</time>
      </trkpt>
      <trkpt lat="46.43495" lon="6.09099">
        <ele>1456.78</ele>
        <time>2014-08-17T08:28:09Z</time>
      </trkpt>
      <trkpt lat="46.43488" lon="6.09103">
        <ele>1458.25</ele>
        <time>2014-08-17T08:28:19Z</time>
      </trkpt>
      <trkpt lat="46.43481" lon="6.09109">
        <ele>1459.91</ele>
        <time>2014-08-17T08:28:29Z</time>
      </trkpt>
      <trkpt lat="46.43478" lon="6.09124">
        <ele>1460.97</ele>
        <time>2014-08-17T08:28:39Z</time>
      </trkpt>
      <trkpt lat="46.43479" lon="6.09134">
        <ele>1461.66</ele>
        <time>2014-08-17T08:28:49Z</time>
      </trkpt>
      <trkpt lat="46.43479" lon="6.0914">
        <ele>1461.28</ele>
        <time>2014-08-17T08:28:59Z</time>
      </trkpt>
      <trkpt lat="46.43481" lon="6.09145">
        <ele>1461.25</ele>
        <time>2014-08-17T08:29:09Z</time>
      </trkpt>
      <trkpt lat="46.43482" lon="6.09155">
        <ele>1461.8</ele>
        <time>2014-08-17T08:29:19Z</time>
      </trkpt>
      <trkpt lat="46.43486" lon="6.09162">
        <ele>1462.89</ele>
        <time>2014-08-17T08:29:29Z</time>
      </trkpt>
      <trkpt lat="46.43484" lon="6.09175">
        <ele>1464.1</ele>
        <time>2014-08-17T08:29:39Z</time>
      </trkpt>
      <trkpt lat="46.43483" lon="6.09179">
        <ele>1464.23</ele>
        <time>2014-08-17T08:29:49Z</time>
      </trkpt>
      <trkpt lat="46.43483" lon="6.09182">
        <ele>1463.86</ele>
        <time>2014-08-17T08:30:04Z</time>
      </trkpt>
      <trkpt lat="46.43485" lon="6.09198">
        <ele>1463.65</ele>
        <time>2014-08-17T08:30:14Z</time>
      </trkpt>
      <trkpt lat="46.43483" lon="6.09209">
        <ele>1463.18</ele>
        <time>2014-08-17T08:30:24Z</time>
      </trkpt>
      <trkpt lat="46.43481" lon="6.09221">
        <ele>1463.19</ele>
        <time>2014-08-17T08:30:34Z</time>
      </trkpt>
      <trkpt lat="46.43483" lon="6.0923">
        <ele>1462.29</ele>
        <time>2014-08-17T08:30:44Z</time>
      </trkpt>
      <trkpt lat="46.43484" lon="6.09232">
        <ele>1462.12</ele>
        <time>2014-08-17T08:30:54Z</time>
      </trkpt>
      <trkpt lat="46.43478" lon="6.09245">
        <ele>1462.56</ele>
        <time>2014-08-17T08:31:04Z</time>
      </trkpt>
      <trkpt lat="46.43476" lon="6.09259">
        <ele>1465.1</ele>
        <time>2014-08-17T08:31:14Z</time>
      </trkpt>
      <trkpt lat="46.43476" lon="6.09269">
        <ele>1468.2</ele>
        <time>2014-08-17T08:31:24Z</time>
      </trkpt>
      <trkpt lat="46.43477" lon="6.09282">
        <ele>1471.47</ele>
        <time>2014-08-17T08:31:34Z</time>
      </trkpt>
      <trkpt lat="46.43473" lon="6.09285">
        <ele>1473.98</ele>
        <time>2014-08-17T08:31:44Z</time>
      </trkpt>
      <trkpt lat="46.4347" lon="6.09287">
        <ele>1475.62</ele>
        <time>2014-08-17T08:31:54Z</time>
      </trkpt>
      <trkpt lat="46.43465" lon="6.09289">
        <ele>1477.2</ele>
        <time>2014-08-17T08:32:04Z</time>
      </trkpt>
      <trkpt lat="46.43459" lon="6.09291">
        <ele>1480.26</ele>
        <time>2014-08-17T08:32:14Z</time>
      </trkpt>
      <trkpt lat="46.43451" lon="6.09306">
        <ele>1482.61</ele>
        <time>2014-08-17T08:32:24Z</time>
      </trkpt>
      <trkpt lat="46.43451" lon="6.09311">
        <ele>1484.48</ele>
        <time>2014-08-17T08:32:34Z</time>
      </trkpt>
      <trkpt lat="46.43446" lon="6.09315">
        <ele>1484.9</ele>
        <time>2014-08-17T08:32:44Z</time>
      </trkpt>
      <trkpt lat="46.43445" lon="6.09318">
        <ele>1484.79</ele>
        <time>2014-08-17T08:32:54Z</time>
      </trkpt>
      <trkpt lat="46.43446" lon="6.09318">
        <ele>1486.04</ele>
        <time>2014-08-17T08:33:23Z</time>
      </trkpt>
      <trkpt lat="46.43447" lon="6.09317">
        <ele>1488.37</ele>
        <time>2014-08-17T08:33:54Z</time>
      </trkpt>
      <trkpt lat="46.43448" lon="6.09318">
        <ele>1488.77</ele>
        <time>2014-08-17T08:34:04Z</time>
      </trkpt>
      <trkpt lat="46.43447" lon="6.09318">
        <ele>1487.44</ele>
        <time>2014-08-17T08:34:52Z</time>
      </trkpt>
      <trkpt lat="46.43446" lon="6.09319">
        <ele>1488.12</ele>
        <time>2014-08-17T08:35:52Z</time>
      </trkpt>
      <trkpt lat="46.43442" lon="6.09331">
        <ele>1489.85</ele>
        <time>2014-08-17T08:36:02Z</time>
      </trkpt>
      <trkpt lat="46.4344" lon="6.09341">
        <ele>1492.26</ele>
        <time>2014-08-17T08:36:12Z</time>
      </trkpt>
      <trkpt lat="46.43434" lon="6.09348">
        <ele>1494.32</ele>
        <time>2014-08-17T08:36:22Z</time>
      </trkpt>
      <trkpt lat="46.43433" lon="6.09356">
        <ele>1495.2</ele>
        <time>2014-08-17T08:36:32Z</time>
      </trkpt>
      <trkpt lat="46.43428" lon="6.09366">
        <ele>1494.74</ele>
        <time>2014-08-17T08:36:42Z</time>
      </trkpt>
      <trkpt lat="46.4342" lon="6.09373">
        <ele>1493.75</ele>
        <time>2014-08-17T08:36:52Z</time>
      </trkpt>
      <trkpt lat="46.43417" lon="6.0938">
        <ele>1493.81</ele>
        <time>2014-08-17T08:37:02Z</time>
      </trkpt>
      <trkpt lat="46.43409" lon="6.0939">
        <ele>1494.2</ele>
        <time>2014-08-17T08:37:12Z</time>
      </trkpt>
      <trkpt lat="46.43405" lon="6.09403">
        <ele>1495.24</ele>
        <time>2014-08-17T08:37:22Z</time>
      </trkpt>
      <trkpt lat="46.43401" lon="6.09412">
        <ele>1497.03</ele>
        <time>2014-08-17T08:37:32Z</time>
      </trkpt>
      <trkpt lat="46.43394" lon="6.09423">
        <ele>1499.74</ele>
        <time>2014-08-17T08:37:42Z</time>
      </trkpt>
      <trkpt lat="46.43388" lon="6.09439">
        <ele>1501.48</ele>
        <time>2014-08-17T08:37:52Z</time>
      </trkpt>
      <trkpt lat="46.43383" lon="6.09449">
        <ele>1502.89</ele>
        <time>2014-08-17T08:38:02Z</time>
      </trkpt>
      <trkpt lat="46.43377" lon="6.09455">
        <ele>1505.18</ele>
        <time>2014-08-17T08:38:12Z</time>
      </trkpt>
      <trkpt lat="46.43373" lon="6.09457">
        <ele>1505.48</ele>
        <time>2014-08-17T08:38:22Z</time>
      </trkpt>
      <trkpt lat="46.43374" lon="6.09463">
        <ele>1504.98</ele>
        <time>2014-08-17T08:38:32Z</time>
      </trkpt>
      <trkpt lat="46.43373" lon="6.09469">
        <ele>1504.62</ele>
        <time>2014-08-17T08:38:42Z</time>
      </trkpt>
      <trkpt lat="46.43377" lon="6.09481">
        <ele>1504.69</ele>
        <time>2014-08-17T08:38:52Z</time>
      </trkpt>
      <trkpt lat="46.43379" lon="6.09493">
        <ele>1504.3</ele>
        <time>2014-08-17T08:39:02Z</time>
      </trkpt>
      <trkpt lat="46.43378" lon="6.09501">
        <ele>1503.42</ele>
        <time>2014-08-17T08:39:12Z</time>
      </trkpt>
      <trkpt lat="46.43379" lon="6.09512">
        <ele>1503.22</ele>
        <time>2014-08-17T08:39:22Z</time>
      </trkpt>
      <trkpt lat="46.43376" lon="6.09523">
        <ele>1502.51</ele>
        <time>2014-08-17T08:39:32Z</time>
      </trkpt>
      <trkpt lat="46.43376" lon="6.09532">
        <ele>1501.79</ele>
        <time>2014-08-17T08:39:42Z</time>
      </trkpt>
      <trkpt lat="46.43374" lon="6.09542">
        <ele>1501.45</ele>
        <time>2014-08-17T08:39:52Z</time>
      </trkpt>
      <trkpt lat="46.43371" lon="6.09543">
        <ele>1502.01</ele>
        <time>2014-08-17T08:40:02Z</time>
      </trkpt>
      <trkpt lat="46.43368" lon="6.09542">
        <ele>1501.75</ele>
        <time>2014-08-17T08:40:12Z</time>
      </trkpt>
      <trkpt lat="46.43361" lon="6.09546">
        <ele>1500.82</ele>
        <time>2014-08-17T08:40:22Z</time>
      </trkpt>
      <trkpt lat="46.43357" lon="6.0956">
        <ele>1500.94</ele>
        <time>2014-08-17T08:40:32Z</time>
      </trkpt>
      <trkpt lat="46.43354" lon="6.09567">
        <ele>1502.08</ele>
        <time>2014-08-17T08:40:42Z</time>
      </trkpt>
      <trkpt lat="46.43348" lon="6.09574">
        <ele>1503.58</ele>
        <time>2014-08-17T08:40:52Z</time>
      </trkpt>
      <trkpt lat="46.43346" lon="6.09581">
        <ele>1503.96</ele>
        <time>2014-08-17T08:41:02Z</time>
      </trkpt>
      <trkpt lat="46.43344" lon="6.09589">
        <ele>1505.05</ele>
        <time>2014-08-17T08:41:12Z</time>
      </trkpt>
      <trkpt lat="46.43345" lon="6.09597">
        <ele>1506.04</ele>
        <time>2014-08-17T08:41:22Z</time>
      </trkpt>
      <trkpt lat="46.43338" lon="6.09602">
        <ele>1506.59</ele>
        <time>2014-08-17T08:41:32Z</time>
      </trkpt>
      <trkpt lat="46.4333" lon="6.09603">
        <ele>1507.64</ele>
        <time>2014-08-17T08:41:42Z</time>
      </trkpt>
      <trkpt lat="46.43327" lon="6.09599">
        <ele>1508.51</ele>
        <time>2014-08-17T08:41:52Z</time>
      </trkpt>
      <trkpt lat="46.4332" lon="6.09598">
        <ele>1510.02</ele>
        <time>2014-08-17T08:42:02Z</time>
      </trkpt>
      <trkpt lat="46.43311" lon="6.09604">
        <ele>1511.25</ele>
        <time>2014-08-17T08:42:12Z</time>
      </trkpt>
      <trkpt lat="46.43308" lon="6.09605">
        <ele>1511.79</ele>
        <time>2014-08-17T08:42:22Z</time>
      </trkpt>
      <trkpt lat="46.43307" lon="6.09604">
        <ele>1512.5</ele>
        <time>2014-08-17T08:42:35Z</time>
      </trkpt>
      <trkpt lat="46.43308" lon="6.09604">
        <ele>1512.4</ele>
        <time>2014-08-17T08:43:08Z</time>
      </trkpt>
      <trkpt lat="46.43303" lon="6.09603">
        <ele>1512.03</ele>
        <time>2014-08-17T08:43:18Z</time>
      </trkpt>
      <trkpt lat="46.43299" lon="6.09606">
        <ele>1512.44</ele>
        <time>2014-08-17T08:43:28Z</time>
      </trkpt>
      <trkpt lat="46.43293" lon="6.09615">
        <ele>1514.34</ele>
        <time>2014-08-17T08:43:38Z</time>
      </trkpt>
      <trkpt lat="46.43292" lon="6.09616">
        <ele>1515.09</ele>
        <time>2014-08-17T08:43:49Z</time>
      </trkpt>
      <trkpt lat="46.43291" lon="6.09618">
        <ele>1515.72</ele>
        <time>2014-08-17T08:44:04Z</time>
      </trkpt>
      <trkpt lat="46.43281" lon="6.09624">
        <ele>1516.22</ele>
        <time>2014-08-17T08:44:14Z</time>
      </trkpt>
      <trkpt lat="46.43276" lon="6.09629">
        <ele>1516.4</ele>
        <time>2014-08-17T08:44:24Z</time>
      </trkpt>
      <trkpt lat="46.43269" lon="6.09632">
        <ele>1516.96</ele>
        <time>2014-08-17T08:44:34Z</time>
      </trkpt>
      <trkpt lat="46.43262" lon="6.09637">
        <ele>1517.5</ele>
        <time>2014-08-17T08:44:44Z</time>
      </trkpt>
      <trkpt lat="46.43259" lon="6.0964">
        <ele>1519.11</ele>
        <time>2014-08-17T08:44:54Z</time>
      </trkpt>
      <trkpt lat="46.43253" lon="6.09645">
        <ele>1520.85</ele>
        <time>2014-08-17T08:45:04Z</time>
      </trkpt>
      <trkpt lat="46.43248" lon="6.09649">
        <ele>1522.23</ele>
        <time>2014-08-17T08:45:14Z</time>
      </trkpt>
      <trkpt lat="46.43247" lon="6.09654">
        <ele>1524.09</ele>
        <time>2014-08-17T08:45:24Z</time>
      </trkpt>
      <trkpt lat="46.43246" lon="6.09657">
        <ele>1524.96</ele>
        <time>2014-08-17T08:45:34Z</time>
      </trkpt>
      <trkpt lat="46.43248" lon="6.09656">
        <ele>1525.08</ele>
        <time>2014-08-17T08:45:44Z</time>
      </trkpt>
      <trkpt lat="46.43249" lon="6.09657">
        <ele>1524.97</ele>
        <time>2014-08-17T08:45:54Z</time>
      </trkpt>
      <trkpt lat="46.43249" lon="6.09659">
        <ele>1524.59</ele>
        <time>2014-08-17T08:46:04Z</time>
      </trkpt>
      <trkpt lat="46.43241" lon="6.09663">
        <ele>1524.45</ele>
        <time>2014-08-17T08:46:14Z</time>
      </trkpt>
      <trkpt lat="46.43236" lon="6.09667">
        <ele>1525</ele>
        <time>2014-08-17T08:46:24Z</time>
      </trkpt>
      <trkpt lat="46.43238" lon="6.09673">
        <ele>1525.95</ele>
        <time>2014-08-17T08:46:34Z</time>
      </trkpt>
      <trkpt lat="46.43235" lon="6.09679">
        <ele>1527.41</ele>
        <time>2014-08-17T08:46:44Z</time>
      </trkpt>
      <trkpt lat="46.43233" lon="6.09685">
        <ele>1529.58</ele>
        <time>2014-08-17T08:46:54Z</time>
      </trkpt>
      <trkpt lat="46.43226" lon="6.0969">
        <ele>1531.01</ele>
        <time>2014-08-17T08:47:04Z</time>
      </trkpt>
      <trkpt lat="46.43224" lon="6.0969">
        <ele>1532.97</ele>
        <time>2014-08-17T08:47:14Z</time>
      </trkpt>
      <trkpt lat="46.43215" lon="6.09689">
        <ele>1534.05</ele>
        <time>2014-08-17T08:47:24Z</time>
      </trkpt>
      <trkpt lat="46.43211" lon="6.09693">
        <ele>1534.02</ele>
        <time>2014-08-17T08:47:34Z</time>
      </trkpt>
      <trkpt lat="46.43203" lon="6.09697">
        <ele>1534.23</ele>
        <time>2014-08-17T08:47:44Z</time>
      </trkpt>
      <trkpt lat="46.43204" lon="6.097">
        <ele>1534.68</ele>
        <time>2014-08-17T08:47:54Z</time>
      </trkpt>
      <trkpt lat="46.43206" lon="6.09702">
        <ele>1535.09</ele>
        <time>2014-08-17T08:48:04Z</time>
      </trkpt>
      <trkpt lat="46.432" lon="6.09707">
        <ele>1536.86</ele>
        <time>2014-08-17T08:48:14Z</time>
      </trkpt>
      <trkpt lat="46.43193" lon="6.09715">
        <ele>1537.8</ele>
        <time>2014-08-17T08:48:24Z</time>
      </trkpt>
      <trkpt lat="46.43188" lon="6.0972">
        <ele>1538.89</ele>
        <time>2014-08-17T08:48:34Z</time>
      </trkpt>
      <trkpt lat="46.43185" lon="6.09724">
        <ele>1540.13</ele>
        <time>2014-08-17T08:48:44Z</time>
      </trkpt>
      <trkpt lat="46.43182" lon="6.09726">
        <ele>1541.25</ele>
        <time>2014-08-17T08:48:54Z</time>
      </trkpt>
      <trkpt lat="46.43177" lon="6.09731">
        <ele>1541.49</ele>
        <time>2014-08-17T08:49:04Z</time>
      </trkpt>
      <trkpt lat="46.43173" lon="6.09734">
        <ele>1542.2</ele>
        <time>2014-08-17T08:49:14Z</time>
      </trkpt>
      <trkpt lat="46.43177" lon="6.09733">
        <ele>1542.69</ele>
        <time>2014-08-17T08:49:24Z</time>
      </trkpt>
      <trkpt lat="46.43177" lon="6.09736">
        <ele>1542.76</ele>
        <time>2014-08-17T08:49:34Z</time>
      </trkpt>
      <trkpt lat="46.43177" lon="6.0974">
        <ele>1542.78</ele>
        <time>2014-08-17T08:49:44Z</time>
      </trkpt>
      <trkpt lat="46.43175" lon="6.09743">
        <ele>1543.39</ele>
        <time>2014-08-17T08:49:54Z</time>
      </trkpt>
      <trkpt lat="46.43173" lon="6.09752">
        <ele>1544.69</ele>
        <time>2014-08-17T08:50:04Z</time>
      </trkpt>
      <trkpt lat="46.43173" lon="6.09762">
        <ele>1546.15</ele>
        <time>2014-08-17T08:50:14Z</time>
      </trkpt>
      <trkpt lat="46.43169" lon="6.0977">
        <ele>1547.14</ele>
        <time>2014-08-17T08:50:24Z</time>
      </trkpt>
      <trkpt lat="46.43168" lon="6.09779">
        <ele>1548.11</ele>
        <time>2014-08-17T08:50:34Z</time>
      </trkpt>
      <trkpt lat="46.4317" lon="6.09786">
        <ele>1549.9</ele>
        <time>2014-08-17T08:50:44Z</time>
      </trkpt>
      <trkpt lat="46.43167" lon="6.09795">
        <ele>1551.3</ele>
        <time>2014-08-17T08:50:54Z</time>
      </trkpt>
      <trkpt lat="46.43163" lon="6.098">
        <ele>1552.49</ele>
        <time>2014-08-17T08:51:04Z</time>
      </trkpt>
      <trkpt lat="46.43164" lon="6.09808">
        <ele>1553.48</ele>
        <time>2014-08-17T08:51:14Z</time>
      </trkpt>
      <trkpt lat="46.43163" lon="6.09813">
        <ele>1555.23</ele>
        <time>2014-08-17T08:51:24Z</time>
      </trkpt>
      <trkpt lat="46.43161" lon="6.09819">
        <ele>1556.63</ele>
        <time>2014-08-17T08:51:34Z</time>
      </trkpt>
      <trkpt lat="46.43157" lon="6.09827">
        <ele>1557.38</ele>
        <time>2014-08-17T08:51:44Z</time>
      </trkpt>
      <trkpt lat="46.43155" lon="6.09833">
        <ele>1558.61</ele>
        <time>2014-08-17T08:51:54Z</time>
      </trkpt>
      <trkpt lat="46.43152" lon="6.09839">
        <ele>1559.53</ele>
        <time>2014-08-17T08:52:04Z</time>
      </trkpt>
      <trkpt lat="46.4315" lon="6.09847">
        <ele>1560.61</ele>
        <time>2014-08-17T08:52:14Z</time>
      </trkpt>
      <trkpt lat="46.43149" lon="6.09848">
        <ele>1561.99</ele>
        <time>2014-08-17T08:52:24Z</time>
      </trkpt>
      <trkpt lat="46.43146" lon="6.09853">
        <ele>1562.96</ele>
        <time>2014-08-17T08:52:34Z</time>
      </trkpt>
      <trkpt lat="46.43144" lon="6.09871">
        <ele>1563.84</ele>
        <time>2014-08-17T08:52:44Z</time>
      </trkpt>
      <trkpt lat="46.43143" lon="6.09871">
        <ele>1565.45</ele>
        <time>2014-08-17T08:52:54Z</time>
      </trkpt>
      <trkpt lat="46.43143" lon="6.09874">
        <ele>1566.47</ele>
        <time>2014-08-17T08:53:04Z</time>
      </trkpt>
      <trkpt lat="46.43139" lon="6.09874">
        <ele>1566.81</ele>
        <time>2014-08-17T08:53:14Z</time>
      </trkpt>
      <trkpt lat="46.4314" lon="6.09875">
        <ele>1566.95</ele>
        <time>2014-08-17T08:53:34Z</time>
      </trkpt>
      <trkpt lat="46.43139" lon="6.09875">
        <ele>1567.04</ele>
        <time>2014-08-17T08:53:44Z</time>
      </trkpt>
      <trkpt lat="46.43137" lon="6.09874">
        <ele>1567.08</ele>
        <time>2014-08-17T08:53:54Z</time>
      </trkpt>
      <trkpt lat="46.43136" lon="6.09876">
        <ele>1567.27</ele>
        <time>2014-08-17T08:54:04Z</time>
      </trkpt>
      <trkpt lat="46.43136" lon="6.09877">
        <ele>1568.45</ele>
        <time>2014-08-17T08:54:58Z</time>
      </trkpt>
      <trkpt lat="46.43136" lon="6.09879">
        <ele>1571.47</ele>
        <time>2014-08-17T08:55:59Z</time>
      </trkpt>
      <trkpt lat="46.43136" lon="6.09889">
        <ele>1572.16</ele>
        <time>2014-08-17T08:56:09Z</time>
      </trkpt>
      <trkpt lat="46.43131" lon="6.09898">
        <ele>1572.65</ele>
        <time>2014-08-17T08:56:19Z</time>
      </trkpt>
      <trkpt lat="46.43131" lon="6.09904">
        <ele>1572.87</ele>
        <time>2014-08-17T08:56:29Z</time>
      </trkpt>
      <trkpt lat="46.4313" lon="6.09903">
        <ele>1573.02</ele>
        <time>2014-08-17T08:56:39Z</time>
      </trkpt>
      <trkpt lat="46.43129" lon="6.09905">
        <ele>1573.7</ele>
        <time>2014-08-17T08:56:49Z</time>
      </trkpt>
      <trkpt lat="46.43128" lon="6.09906">
        <ele>1573.88</ele>
        <time>2014-08-17T08:57:04Z</time>
      </trkpt>
      <trkpt lat="46.43128" lon="6.09908">
        <ele>1573.85</ele>
        <time>2014-08-17T08:57:14Z</time>
      </trkpt>
      <trkpt lat="46.43127" lon="6.09906">
        <ele>1573.86</ele>
        <time>2014-08-17T08:57:24Z</time>
      </trkpt>
      <trkpt lat="46.43127" lon="6.09904">
        <ele>1574.8</ele>
        <time>2014-08-17T08:57:42Z</time>
      </trkpt>
      <trkpt lat="46.43127" lon="6.09912">
        <ele>1575</ele>
        <time>2014-08-17T08:57:52Z</time>
      </trkpt>
      <trkpt lat="46.43122" lon="6.09923">
        <ele>1575.75</ele>
        <time>2014-08-17T08:58:02Z</time>
      </trkpt>
      <trkpt lat="46.43119" lon="6.09931">
        <ele>1576.17</ele>
        <time>2014-08-17T08:58:12Z</time>
      </trkpt>
      <trkpt lat="46.43119" lon="6.0994">
        <ele>1577.01</ele>
        <time>2014-08-17T08:58:22Z</time>
      </trkpt>
      <trkpt lat="46.43116" lon="6.09947">
        <ele>1577.82</ele>
        <time>2014-08-17T08:58:32Z</time>
      </trkpt>
      <trkpt lat="46.43115" lon="6.09953">
        <ele>1579.27</ele>
        <time>2014-08-17T08:58:42Z</time>
      </trkpt>
      <trkpt lat="46.4311" lon="6.09959">
        <ele>1580.5</ele>
        <time>2014-08-17T08:58:52Z</time>
      </trkpt>
      <trkpt lat="46.43108" lon="6.09969">
        <ele>1581.65</ele>
        <time>2014-08-17T08:59:02Z</time>
      </trkpt>
      <trkpt lat="46.43107" lon="6.09979">
        <ele>1582.65</ele>
        <time>2014-08-17T08:59:12Z</time>
      </trkpt>
      <trkpt lat="46.43108" lon="6.09981">
        <ele>1583.28</ele>
        <time>2014-08-17T08:59:22Z</time>
      </trkpt>
      <trkpt lat="46.43107" lon="6.09984">
        <ele>1584.4</ele>
        <time>2014-08-17T08:59:32Z</time>
      </trkpt>
      <trkpt lat="46.43103" lon="6.09991">
        <ele>1585.23</ele>
        <time>2014-08-17T08:59:42Z</time>
      </trkpt>
      <trkpt lat="46.43103" lon="6.1">
        <ele>1585.28</ele>
        <time>2014-08-17T08:59:52Z</time>
      </trkpt>
      <trkpt lat="46.43104" lon="6.10005">
        <ele>1586.4</ele>
        <time>2014-08-17T09:00:02Z</time>
      </trkpt>
      <trkpt lat="46.43099" lon="6.10005">
        <ele>1587.65</ele>
        <time>2014-08-17T09:00:12Z</time>
      </trkpt>
      <trkpt lat="46.43099" lon="6.10003">
        <ele>1588.14</ele>
        <time>2014-08-17T09:00:22Z</time>
      </trkpt>
      <trkpt lat="46.43098" lon="6.10003">
        <ele>1588.3</ele>
        <time>2014-08-17T09:00:35Z</time>
      </trkpt>
      <trkpt lat="46.4309" lon="6.10008">
        <ele>1589.16</ele>
        <time>2014-08-17T09:00:45Z</time>
      </trkpt>
      <trkpt lat="46.43086" lon="6.10011">
        <ele>1590.71</ele>
        <time>2014-08-17T09:00:55Z</time>
      </trkpt>
      <trkpt lat="46.43084" lon="6.10012">
        <ele>1591.52</ele>
        <time>2014-08-17T09:01:05Z</time>
      </trkpt>
      <trkpt lat="46.43083" lon="6.10015">
        <ele>1592.08</ele>
        <time>2014-08-17T09:01:15Z</time>
      </trkpt>
      <trkpt lat="46.4308" lon="6.10022">
        <ele>1593.09</ele>
        <time>2014-08-17T09:01:25Z</time>
      </trkpt>
      <trkpt lat="46.43075" lon="6.10023">
        <ele>1594.45</ele>
        <time>2014-08-17T09:01:35Z</time>
      </trkpt>
      <trkpt lat="46.43073" lon="6.10024">
        <ele>1595.07</ele>
        <time>2014-08-17T09:01:45Z</time>
      </trkpt>
      <trkpt lat="46.43067" lon="6.10028">
        <ele>1596.85</ele>
        <time>2014-08-17T09:01:55Z</time>
      </trkpt>
      <trkpt lat="46.43061" lon="6.10029">
        <ele>1598.34</ele>
        <time>2014-08-17T09:02:05Z</time>
      </trkpt>
      <trkpt lat="46.43056" lon="6.10033">
        <ele>1600.03</ele>
        <time>2014-08-17T09:02:15Z</time>
      </trkpt>
      <trkpt lat="46.43052" lon="6.10038">
        <ele>1601.55</ele>
        <time>2014-08-17T09:02:25Z</time>
      </trkpt>
      <trkpt lat="46.43051" lon="6.10038">
        <ele>1603.23</ele>
        <time>2014-08-17T09:02:36Z</time>
      </trkpt>
      <trkpt lat="46.43048" lon="6.1004">
        <ele>1604.75</ele>
        <time>2014-08-17T09:02:46Z</time>
      </trkpt>
      <trkpt lat="46.43047" lon="6.1004">
        <ele>1605.86</ele>
        <time>2014-08-17T09:02:57Z</time>
      </trkpt>
      <trkpt lat="46.43049" lon="6.10038">
        <ele>1606.91</ele>
        <time>2014-08-17T09:03:07Z</time>
      </trkpt>
      <trkpt lat="46.43048" lon="6.10036">
        <ele>1607.65</ele>
        <time>2014-08-17T09:03:17Z</time>
      </trkpt>
      <trkpt lat="46.43047" lon="6.10037">
        <ele>1607.96</ele>
        <time>2014-08-17T09:03:29Z</time>
      </trkpt>
      <trkpt lat="46.43041" lon="6.10038">
        <ele>1609.37</ele>
        <time>2014-08-17T09:03:39Z</time>
      </trkpt>
      <trkpt lat="46.43036" lon="6.10041">
        <ele>1610.54</ele>
        <time>2014-08-17T09:03:49Z</time>
      </trkpt>
      <trkpt lat="46.43034" lon="6.10042">
        <ele>1610.89</ele>
        <time>2014-08-17T09:03:59Z</time>
      </trkpt>
      <trkpt lat="46.43031" lon="6.10041">
        <ele>1611.62</ele>
        <time>2014-08-17T09:04:09Z</time>
      </trkpt>
      <trkpt lat="46.43024" lon="6.1004">
        <ele>1611.98</ele>
        <time>2014-08-17T09:04:19Z</time>
      </trkpt>
      <trkpt lat="46.43021" lon="6.10039">
        <ele>1612.57</ele>
        <time>2014-08-17T09:04:29Z</time>
      </trkpt>
      <trkpt lat="46.43018" lon="6.10044">
        <ele>1613.86</ele>
        <time>2014-08-17T09:04:39Z</time>
      </trkpt>
      <trkpt lat="46.43015" lon="6.10048">
        <ele>1615.06</ele>
        <time>2014-08-17T09:04:49Z</time>
      </trkpt>
      <trkpt lat="46.43014" lon="6.10047">
        <ele>1616.29</ele>
        <time>2014-08-17T09:05:06Z</time>
      </trkpt>
      <trkpt lat="46.43011" lon="6.1005">
        <ele>1617.78</ele>
        <time>2014-08-17T09:05:16Z</time>
      </trkpt>
      <trkpt lat="46.43003" lon="6.10052">
        <ele>1618.63</ele>
        <time>2014-08-17T09:05:26Z</time>
      </trkpt>
      <trkpt lat="46.43" lon="6.10052">
        <ele>1619.34</ele>
        <time>2014-08-17T09:05:36Z</time>
      </trkpt>
      <trkpt lat="46.42993" lon="6.10053">
        <ele>1620.16</ele>
        <time>2014-08-17T09:05:46Z</time>
      </trkpt>
      <trkpt lat="46.42989" lon="6.10055">
        <ele>1621.03</ele>
        <time>2014-08-17T09:05:56Z</time>
      </trkpt>
      <trkpt lat="46.42985" lon="6.10054">
        <ele>1622.56</ele>
        <time>2014-08-17T09:06:06Z</time>
      </trkpt>
      <trkpt lat="46.4298" lon="6.10056">
        <ele>1624.11</ele>
        <time>2014-08-17T09:06:16Z</time>
      </trkpt>
      <trkpt lat="46.42974" lon="6.10061">
        <ele>1625.62</ele>
        <time>2014-08-17T09:06:26Z</time>
      </trkpt>
      <trkpt lat="46.42974" lon="6.1006">
        <ele>1626.66</ele>
        <time>2014-08-17T09:06:39Z</time>
      </trkpt>
      <trkpt lat="46.42973" lon="6.10059">
        <ele>1626.82</ele>
        <time>2014-08-17T09:06:55Z</time>
      </trkpt>
      <trkpt lat="46.42974" lon="6.10057">
        <ele>1626.93</ele>
        <time>2014-08-17T09:07:05Z</time>
      </trkpt>
      <trkpt lat="46.42975" lon="6.10056">
        <ele>1627.3</ele>
        <time>2014-08-17T09:07:15Z</time>
      </trkpt>
      <trkpt lat="46.42976" lon="6.10057">
        <ele>1628.95</ele>
        <time>2014-08-17T09:07:25Z</time>
      </trkpt>
      <trkpt lat="46.42976" lon="6.1006">
        <ele>1630.69</ele>
        <time>2014-08-17T09:07:35Z</time>
      </trkpt>
      <trkpt lat="46.42972" lon="6.10059">
        <ele>1631.38</ele>
        <time>2014-08-17T09:07:45Z</time>
      </trkpt>
      <trkpt lat="46.42965" lon="6.10058">
        <ele>1632.63</ele>
        <time>2014-08-17T09:07:55Z</time>
      </trkpt>
      <trkpt lat="46.42961" lon="6.10058">
        <ele>1633</ele>
        <time>2014-08-17T09:08:05Z</time>
      </trkpt>
      <trkpt lat="46.42957" lon="6.10057">
        <ele>1634.53</ele>
        <time>2014-08-17T09:08:15Z</time>
      </trkpt>
      <trkpt lat="46.42948" lon="6.10056">
        <ele>1635.14</ele>
        <time>2014-08-17T09:08:25Z</time>
      </trkpt>
      <trkpt lat="46.42945" lon="6.10054">
        <ele>1635.9</ele>
        <time>2014-08-17T09:08:35Z</time>
      </trkpt>
      <trkpt lat="46.42942" lon="6.10052">
        <ele>1636.88</ele>
        <time>2014-08-17T09:08:45Z</time>
      </trkpt>
      <trkpt lat="46.42941" lon="6.10049">
        <ele>1637.54</ele>
        <time>2014-08-17T09:08:55Z</time>
      </trkpt>
      <trkpt lat="46.42941" lon="6.10046">
        <ele>1638.62</ele>
        <time>2014-08-17T09:09:05Z</time>
      </trkpt>
      <trkpt lat="46.42932" lon="6.10046">
        <ele>1639.72</ele>
        <time>2014-08-17T09:09:15Z</time>
      </trkpt>
      <trkpt lat="46.4293" lon="6.10051">
        <ele>1640.39</ele>
        <time>2014-08-17T09:09:25Z</time>
      </trkpt>
      <trkpt lat="46.42926" lon="6.10052">
        <ele>1641.53</ele>
        <time>2014-08-17T09:09:35Z</time>
      </trkpt>
      <trkpt lat="46.42923" lon="6.1005">
        <ele>1643.32</ele>
        <time>2014-08-17T09:09:45Z</time>
      </trkpt>
      <trkpt lat="46.42919" lon="6.10048">
        <ele>1644.7</ele>
        <time>2014-08-17T09:09:55Z</time>
      </trkpt>
      <trkpt lat="46.42914" lon="6.10043">
        <ele>1646.86</ele>
        <time>2014-08-17T09:10:05Z</time>
      </trkpt>
      <trkpt lat="46.42911" lon="6.10043">
        <ele>1648.44</ele>
        <time>2014-08-17T09:10:15Z</time>
      </trkpt>
      <trkpt lat="46.42905" lon="6.10039">
        <ele>1650.02</ele>
        <time>2014-08-17T09:10:25Z</time>
      </trkpt>
      <trkpt lat="46.42901" lon="6.10038">
        <ele>1651.47</ele>
        <time>2014-08-17T09:10:35Z</time>
      </trkpt>
      <trkpt lat="46.42898" lon="6.10039">
        <ele>1651.88</ele>
        <time>2014-08-17T09:10:45Z</time>
      </trkpt>
      <trkpt lat="46.42895" lon="6.10041">
        <ele>1652.16</ele>
        <time>2014-08-17T09:10:55Z</time>
      </trkpt>
      <trkpt lat="46.42893" lon="6.10041">
        <ele>1652.69</ele>
        <time>2014-08-17T09:11:05Z</time>
      </trkpt>
      <trkpt lat="46.42884" lon="6.10038">
        <ele>1654.03</ele>
        <time>2014-08-17T09:11:15Z</time>
      </trkpt>
      <trkpt lat="46.42882" lon="6.10035">
        <ele>1654.94</ele>
        <time>2014-08-17T09:11:25Z</time>
      </trkpt>
      <trkpt lat="46.42873" lon="6.1003">
        <ele>1655.98</ele>
        <time>2014-08-17T09:11:35Z</time>
      </trkpt>
      <trkpt lat="46.42866" lon="6.10029">
        <ele>1656.79</ele>
        <time>2014-08-17T09:11:45Z</time>
      </trkpt>
      <trkpt lat="46.4286" lon="6.10028">
        <ele>1657.96</ele>
        <time>2014-08-17T09:11:55Z</time>
      </trkpt>
      <trkpt lat="46.42856" lon="6.10029">
        <ele>1658.99</ele>
        <time>2014-08-17T09:12:05Z</time>
      </trkpt>
      <trkpt lat="46.4285" lon="6.10029">
        <ele>1660.81</ele>
        <time>2014-08-17T09:12:15Z</time>
      </trkpt>
      <trkpt lat="46.42842" lon="6.10026">
        <ele>1662.07</ele>
        <time>2014-08-17T09:12:25Z</time>
      </trkpt>
      <trkpt lat="46.42837" lon="6.10025">
        <ele>1663.11</ele>
        <time>2014-08-17T09:12:35Z</time>
      </trkpt>
      <trkpt lat="46.42831" lon="6.10024">
        <ele>1664.82</ele>
        <time>2014-08-17T09:12:45Z</time>
      </trkpt>
      <trkpt lat="46.42825" lon="6.10019">
        <ele>1665.8</ele>
        <time>2014-08-17T09:12:55Z</time>
      </trkpt>
      <trkpt lat="46.42823" lon="6.1002">
        <ele>1666.66</ele>
        <time>2014-08-17T09:13:05Z</time>
      </trkpt>
      <trkpt lat="46.42822" lon="6.10022">
        <ele>1667.14</ele>
        <time>2014-08-17T09:13:15Z</time>
      </trkpt>
      <trkpt lat="46.42823" lon="6.10022">
        <ele>1667.62</ele>
        <time>2014-08-17T09:13:32Z</time>
      </trkpt>
      <trkpt lat="46.42823" lon="6.1002">
        <ele>1667.84</ele>
        <time>2014-08-17T09:13:43Z</time>
      </trkpt>
      <trkpt lat="46.42817" lon="6.10021">
        <ele>1668.06</ele>
        <time>2014-08-17T09:13:53Z</time>
      </trkpt>
      <trkpt lat="46.4281" lon="6.10017">
        <ele>1668.6</ele>
        <time>2014-08-17T09:14:03Z</time>
      </trkpt>
      <trkpt lat="46.42801" lon="6.10015">
        <ele>1669.22</ele>
        <time>2014-08-17T09:14:13Z</time>
      </trkpt>
      <trkpt lat="46.42799" lon="6.10014">
        <ele>1670.38</ele>
        <time>2014-08-17T09:14:23Z</time>
      </trkpt>
      <trkpt lat="46.42792" lon="6.10013">
        <ele>1671.72</ele>
        <time>2014-08-17T09:14:33Z</time>
      </trkpt>
      <trkpt lat="46.42783" lon="6.10011">
        <ele>1672.55</ele>
        <time>2014-08-17T09:14:43Z</time>
      </trkpt>
      <trkpt lat="46.42778" lon="6.10008">
        <ele>1673.9</ele>
        <time>2014-08-17T09:14:53Z</time>
      </trkpt>
      <trkpt lat="46.42774" lon="6.10004">
        <ele>1675.53</ele>
        <time>2014-08-17T09:15:03Z</time>
      </trkpt>
      <trkpt lat="46.42769" lon="6.09999">
        <ele>1676.49</ele>
        <time>2014-08-17T09:15:13Z</time>
      </trkpt>
      <trkpt lat="46.42767" lon="6.10002">
        <ele>1676.75</ele>
        <time>2014-08-17T09:15:23Z</time>
      </trkpt>
      <trkpt lat="46.42766" lon="6.10004">
        <ele>1677.62</ele>
        <time>2014-08-17T09:15:33Z</time>
      </trkpt>
      <trkpt lat="46.42763" lon="6.10003">
        <ele>1678.3</ele>
        <time>2014-08-17T09:15:43Z</time>
      </trkpt>
      <trkpt lat="46.42758" lon="6.10003">
        <ele>1678.95</ele>
        <time>2014-08-17T09:15:53Z</time>
      </trkpt>
      <trkpt lat="46.42751" lon="6.1">
        <ele>1679.64</ele>
        <time>2014-08-17T09:16:03Z</time>
      </trkpt>
      <trkpt lat="46.42742" lon="6.09999">
        <ele>1680.75</ele>
        <time>2014-08-17T09:16:13Z</time>
      </trkpt>
      <trkpt lat="46.42738" lon="6.09997">
        <ele>1681.44</ele>
        <time>2014-08-17T09:16:23Z</time>
      </trkpt>
      <trkpt lat="46.42731" lon="6.09996">
        <ele>1682.58</ele>
        <time>2014-08-17T09:16:33Z</time>
      </trkpt>
      <trkpt lat="46.42731" lon="6.09997">
        <ele>1682.68</ele>
        <time>2014-08-17T09:16:43Z</time>
      </trkpt>
      <trkpt lat="46.42723" lon="6.09992">
        <ele>1683.2</ele>
        <time>2014-08-17T09:16:53Z</time>
      </trkpt>
      <trkpt lat="46.42715" lon="6.09987">
        <ele>1684.8</ele>
        <time>2014-08-17T09:17:03Z</time>
      </trkpt>
      <trkpt lat="46.42706" lon="6.09986">
        <ele>1685.85</ele>
        <time>2014-08-17T09:17:13Z</time>
      </trkpt>
      <trkpt lat="46.42696" lon="6.09982">
        <ele>1687.07</ele>
        <time>2014-08-17T09:17:23Z</time>
      </trkpt>
      <trkpt lat="46.42689" lon="6.09977">
        <ele>1688.99</ele>
        <time>2014-08-17T09:17:33Z</time>
      </trkpt>
      <trkpt lat="46.42682" lon="6.09973">
        <ele>1690.92</ele>
        <time>2014-08-17T09:17:43Z</time>
      </trkpt>
      <trkpt lat="46.42675" lon="6.09974">
        <ele>1691.9</ele>
        <time>2014-08-17T09:17:53Z</time>
      </trkpt>
      <trkpt lat="46.42673" lon="6.09972">
        <ele>1692.25</ele>
        <time>2014-08-17T09:18:03Z</time>
      </trkpt>
      <trkpt lat="46.42675" lon="6.09974">
        <ele>1692.38</ele>
        <time>2014-08-17T09:18:13Z</time>
      </trkpt>
      <trkpt lat="46.42671" lon="6.09972">
        <ele>1692.86</ele>
        <time>2014-08-17T09:18:23Z</time>
      </trkpt>
      <trkpt lat="46.42665" lon="6.09969">
        <ele>1693.25</ele>
        <time>2014-08-17T09:18:33Z</time>
      </trkpt>
      <trkpt lat="46.42661" lon="6.09967">
        <ele>1694.31</ele>
        <time>2014-08-17T09:18:43Z</time>
      </trkpt>
      <trkpt lat="46.42653" lon="6.09964">
        <ele>1694.59</ele>
        <time>2014-08-17T09:18:53Z</time>
      </trkpt>
      <trkpt lat="46.42645" lon="6.09965">
        <ele>1695.33</ele>
        <time>2014-08-17T09:19:03Z</time>
      </trkpt>
      <trkpt lat="46.42641" lon="6.09961">
        <ele>1697.03</ele>
        <time>2014-08-17T09:19:13Z</time>
      </trkpt>
      <trkpt lat="46.42639" lon="6.09958">
        <ele>1698.09</ele>
        <time>2014-08-17T09:19:23Z</time>
      </trkpt>
      <trkpt lat="46.42634" lon="6.09955">
        <ele>1699.01</ele>
        <time>2014-08-17T09:19:33Z</time>
      </trkpt>
      <trkpt lat="46.42632" lon="6.09956">
        <ele>1699.52</ele>
        <time>2014-08-17T09:19:43Z</time>
      </trkpt>
      <trkpt lat="46.42623" lon="6.09952">
        <ele>1699.84</ele>
        <time>2014-08-17T09:19:53Z</time>
      </trkpt>
      <trkpt lat="46.42617" lon="6.09953">
        <ele>1701.21</ele>
        <time>2014-08-17T09:20:03Z</time>
      </trkpt>
      <trkpt lat="46.42609" lon="6.09953">
        <ele>1703.45</ele>
        <time>2014-08-17T09:20:13Z</time>
      </trkpt>
      <trkpt lat="46.42603" lon="6.09953">
        <ele>1704.41</ele>
        <time>2014-08-17T09:20:23Z</time>
      </trkpt>
      <trkpt lat="46.42598" lon="6.09958">
        <ele>1705.35</ele>
        <time>2014-08-17T09:20:33Z</time>
      </trkpt>
      <trkpt lat="46.42595" lon="6.09957">
        <ele>1706.41</ele>
        <time>2014-08-17T09:20:43Z</time>
      </trkpt>
      <trkpt lat="46.42592" lon="6.09961">
        <ele>1707.93</ele>
        <time>2014-08-17T09:20:53Z</time>
      </trkpt>
      <trkpt lat="46.42593" lon="6.09969">
        <ele>1709.69</ele>
        <time>2014-08-17T09:21:03Z</time>
      </trkpt>
      <trkpt lat="46.42588" lon="6.09972">
        <ele>1710.67</ele>
        <time>2014-08-17T09:21:13Z</time>
      </trkpt>
      <trkpt lat="46.42591" lon="6.09976">
        <ele>1712.18</ele>
        <time>2014-08-17T09:21:23Z</time>
      </trkpt>
      <trkpt lat="46.42591" lon="6.09983">
        <ele>1713.35</ele>
        <time>2014-08-17T09:21:33Z</time>
      </trkpt>
      <trkpt lat="46.42591" lon="6.09993">
        <ele>1714.77</ele>
        <time>2014-08-17T09:21:43Z</time>
      </trkpt>
      <trkpt lat="46.42595" lon="6.09998">
        <ele>1715.91</ele>
        <time>2014-08-17T09:21:53Z</time>
      </trkpt>
      <trkpt lat="46.42595" lon="6.1">
        <ele>1717.49</ele>
        <time>2014-08-17T09:22:03Z</time>
      </trkpt>
      <trkpt lat="46.42595" lon="6.10002">
        <ele>1719.29</ele>
        <time>2014-08-17T09:22:13Z</time>
      </trkpt>
      <trkpt lat="46.42596" lon="6.10011">
        <ele>1720.44</ele>
        <time>2014-08-17T09:22:23Z</time>
      </trkpt>
      <trkpt lat="46.42596" lon="6.10024">
        <ele>1720.4</ele>
        <time>2014-08-17T09:22:33Z</time>
      </trkpt>
      <trkpt lat="46.42591" lon="6.10035">
        <ele>1719.48</ele>
        <time>2014-08-17T09:22:43Z</time>
      </trkpt>
      <trkpt lat="46.42588" lon="6.10047">
        <ele>1719.44</ele>
        <time>2014-08-17T09:22:53Z</time>
      </trkpt>
      <trkpt lat="46.42586" lon="6.10052">
        <ele>1719.59</ele>
        <time>2014-08-17T09:23:03Z</time>
      </trkpt>
      <trkpt lat="46.42588" lon="6.10053">
        <ele>1719.65</ele>
        <time>2014-08-17T09:23:13Z</time>
      </trkpt>
      <trkpt lat="46.42589" lon="6.10054">
        <ele>1719.94</ele>
        <time>2014-08-17T09:23:24Z</time>
      </trkpt>
    </trkseg>
  </trk>
</gpx>